Time;durP1;ratioP1;P1;durP2;ratioP2;P2;SDS_P1;SDS_P2;PMS_P1;PMS_P2;Temp;Humidity;BMP_temperature;BMP_pressure;BME280_temperature;BME280_humidity;BME280_pressure;Samples;Min_cycle;Max_cycle;Signal;HPM_P1;HPM_P2
2023/06/17 00:00:09;;;;;;;17.60;13.80;;;24.10;99.90;;;;;;5011769;28;20026;-73
2023/06/17 00:02:35;;;;;;;20.52;16.52;;;24.00;99.90;;;;;;4993932;28;20042;-73
2023/06/17 00:05:02;;;;;;;19.45;15.43;;;24.10;99.90;;;;;;4993666;28;20471;-73
2023/06/17 00:07:28;;;;;;;18.35;14.98;;;24.10;99.90;;;;;;5011358;28;20511;-73
2023/06/17 00:09:55;;;;;;;17.40;14.35;;;24.10;99.90;;;;;;5013455;28;20026;-73
2023/06/17 00:12:22;;;;;;;15.73;14.23;;;24.10;99.90;;;;;;5012210;28;20041;-73
2023/06/17 00:14:48;;;;;;;17.45;13.90;;;24.20;99.90;;;;;;5013302;28;20022;-73
2023/06/17 00:17:14;;;;;;;15.38;13.75;;;24.20;99.90;;;;;;5011369;28;20041;-73
2023/06/17 00:19:41;;;;;;;15.95;13.77;;;24.20;99.90;;;;;;5011921;28;20463;-73
2023/06/17 00:22:08;;;;;;;15.35;13.75;;;24.20;99.90;;;;;;5011684;28;20501;-73
2023/06/17 00:24:35;;;;;;;15.70;13.77;;;24.20;99.90;;;;;;5013263;28;20041;-73
2023/06/17 00:27:01;;;;;;;15.02;13.48;;;24.30;99.90;;;;;;5011871;28;20026;-73
2023/06/17 00:29:27;;;;;;;15.95;14.38;;;24.30;99.90;;;;;;5013127;28;20034;-73
2023/06/17 00:31:53;;;;;;;16.52;14.13;;;24.30;99.90;;;;;;4997150;28;20043;-73
2023/06/17 00:34:19;;;;;;;14.63;13.02;;;24.20;99.90;;;;;;5008308;28;20034;-73
2023/06/17 00:36:46;;;;;;;14.68;13.07;;;24.30;99.90;;;;;;4992934;28;20038;-73
2023/06/17 00:39:13;;;;;;;16.60;14.13;;;24.30;99.90;;;;;;4992153;28;20030;-73
2023/06/17 00:41:39;;;;;;;16.45;13.88;;;24.30;99.90;;;;;;4991957;28;20049;-73
2023/06/17 00:44:05;;;;;;;14.55;13.05;;;24.30;99.90;;;;;;5008222;28;20039;-74
2023/06/17 00:46:36;;;;;;;14.98;13.18;;;24.20;99.90;;;;;;4992622;28;20042;-74
2023/06/17 00:49:03;;;;;;;17.35;14.30;;;24.20;99.90;;;;;;5006886;28;20499;-74
2023/06/17 00:51:31;;;;;;;17.65;15.00;;;24.20;99.90;;;;;;4991609;28;20038;-74
2023/06/17 00:54:01;;;;;;;18.30;16.40;;;24.20;99.90;;;;;;5007940;28;20041;-73
2023/06/17 00:56:28;;;;;;;17.25;15.55;;;24.10;99.90;;;;;;5007633;28;20037;-73
2023/06/17 00:58:55;;;;;;;17.20;15.50;;;24.00;99.90;;;;;;5007899;28;20050;-73
2023/06/17 01:01:21;;;;;;;18.27;16.00;;;24.00;99.90;;;;;;4991038;28;20031;-73
2023/06/17 01:03:49;;;;;;;17.90;15.90;;;24.00;99.90;;;;;;4992591;28;20042;-73
2023/06/17 01:06:24;;;;;;;20.92;15.75;;;24.00;99.90;;;;;;4992773;28;20030;-73
2023/06/17 01:09:12;;;;;;;20.45;15.70;;;23.90;99.90;;;;;;5007068;28;20399;-74
2023/06/17 01:11:38;;;;;;;17.30;15.70;;;23.90;99.90;;;;;;4991424;28;20468;-73
2023/06/17 01:14:05;;;;;;;18.42;16.58;;;24.00;99.90;;;;;;5007910;28;20033;-73
2023/06/17 01:16:32;;;;;;;17.88;16.00;;;23.90;99.90;;;;;;5007147;28;20042;-73
2023/06/17 01:18:59;;;;;;;19.33;15.40;;;23.90;99.90;;;;;;4992663;28;20033;-73
2023/06/17 01:21:28;;;;;;;17.45;15.65;;;23.80;99.90;;;;;;5007497;28;20030;-73
2023/06/17 01:23:58;;;;;;;19.38;15.90;;;23.80;99.90;;;;;;5007546;28;20045;-73
2023/06/17 01:26:24;;;;;;;15.82;14.20;;;23.80;99.90;;;;;;5007300;28;20058;-73
2023/06/17 01:28:50;;;;;;;17.40;14.27;;;23.80;99.90;;;;;;5007853;28;20030;-73
2023/06/17 01:31:19;;;;;;;17.25;15.43;;;23.80;99.90;;;;;;4992035;28;20483;-73
2023/06/17 01:33:48;;;;;;;16.42;14.73;;;23.80;99.90;;;;;;5007134;28;20037;-74
2023/06/17 01:36:20;;;;;;;19.98;14.85;;;23.80;99.90;;;;;;5007507;28;20033;-73
2023/06/17 01:39:12;;;;;;;17.95;14.40;;;23.80;99.90;;;;;;5007092;28;20034;-73
2023/06/17 01:41:49;;;;;;;19.23;15.38;;;23.80;99.90;;;;;;5005065;28;20045;-73
2023/06/17 01:44:15;;;;;;;19.92;14.73;;;23.70;99.90;;;;;;5007688;28;20038;-73
2023/06/17 01:46:42;;;;;;;16.00;14.40;;;23.70;99.90;;;;;;4990033;28;20030;-73
2023/06/17 01:49:08;;;;;;;19.25;15.77;;;23.70;99.90;;;;;;5007350;28;20046;-73
2023/06/17 01:51:35;;;;;;;17.75;15.95;;;23.60;99.90;;;;;;5007014;28;20043;-73
2023/06/17 01:54:01;;;;;;;17.85;16.00;;;23.60;99.90;;;;;;4992433;28;20026;-73
2023/06/17 01:56:27;;;;;;;18.58;16.50;;;23.50;99.90;;;;;;4992230;28;20403;-73
2023/06/17 01:58:53;;;;;;;20.13;16.73;;;23.50;99.90;;;;;;5007314;28;20045;-73
2023/06/17 02:01:19;;;;;;;17.90;16.02;;;23.50;99.90;;;;;;4992618;28;20452;-73
2023/06/17 02:03:45;;;;;;;17.20;15.57;;;23.50;99.90;;;;;;4992471;28;20511;-73
2023/06/17 02:06:11;;;;;;;17.50;15.77;;;23.40;99.90;;;;;;4989945;28;20022;-73
2023/06/17 02:08:38;;;;;;;21.35;16.70;;;23.40;99.90;;;;;;4994752;28;20399;-73
2023/06/17 02:11:04;;;;;;;17.75;16.05;;;23.40;99.90;;;;;;5009572;28;20030;-73
2023/06/17 02:13:30;;;;;;;25.90;16.80;;;23.40;99.90;;;;;;4994665;28;20026;-73
2023/06/17 02:15:56;;;;;;;18.33;16.48;;;23.40;99.90;;;;;;4993784;28;20075;-73
2023/06/17 02:18:22;;;;;;;18.50;16.50;;;23.30;99.90;;;;;;4993496;28;20030;-73
2023/06/17 02:20:49;;;;;;;21.45;17.08;;;23.20;99.90;;;;;;4994226;28;20043;-73
2023/06/17 02:23:15;;;;;;;18.63;16.73;;;23.10;99.90;;;;;;4994568;28;20026;-73
2023/06/17 02:25:41;;;;;;;20.50;17.05;;;23.10;99.90;;;;;;4994200;28;20038;-73
2023/06/17 02:28:07;;;;;;;19.23;17.27;;;23.00;99.90;;;;;;4994566;28;20026;-73
2023/06/17 02:30:33;;;;;;;19.58;17.45;;;23.00;99.90;;;;;;5008339;28;20029;-73
2023/06/17 02:33:00;;;;;;;20.25;17.40;;;23.00;99.90;;;;;;5009415;28;20030;-74
2023/06/17 02:35:26;;;;;;;21.05;17.42;;;23.00;99.90;;;;;;4993931;28;20462;-73
2023/06/17 02:37:56;;;;;;;20.92;18.73;;;23.00;99.90;;;;;;5005966;28;20046;-73
2023/06/17 02:40:22;;;;;;;19.67;17.80;;;22.90;99.90;;;;;;4994131;28;20029;-73
2023/06/17 02:42:49;;;;;;;20.80;18.58;;;22.90;99.90;;;;;;4995363;28;20034;-73
2023/06/17 02:45:15;;;;;;;20.70;18.50;;;22.90;99.90;;;;;;4994328;28;20532;-73
2023/06/17 02:47:42;;;;;;;19.25;17.25;;;22.90;99.90;;;;;;4995214;28;20030;-73
2023/06/17 02:50:09;;;;;;;19.30;17.30;;;22.90;99.90;;;;;;4994301;28;20058;-74
2023/06/17 02:52:37;;;;;;;18.20;16.25;;;22.90;99.90;;;;;;5009960;28;20047;-73
2023/06/17 02:55:03;;;;;;;22.80;18.50;;;22.90;99.90;;;;;;5010124;28;20045;-73
2023/06/17 02:57:29;;;;;;;20.70;16.92;;;22.90;99.90;;;;;;5009919;28;20037;-73
2023/06/17 02:59:55;;;;;;;22.55;17.98;;;22.80;99.90;;;;;;4994945;28;20027;-72
2023/06/17 03:02:21;;;;;;;19.42;17.55;;;22.80;99.90;;;;;;4994397;28;20045;-73
2023/06/17 03:04:48;;;;;;;20.45;18.35;;;22.70;99.90;;;;;;4993598;28;20059;-73
2023/06/17 03:07:15;;;;;;;19.63;17.48;;;22.70;99.90;;;;;;4994407;28;20519;-74
2023/06/17 03:09:42;;;;;;;21.02;17.45;;;22.70;99.90;;;;;;5009689;28;20046;-73
2023/06/17 03:12:08;;;;;;;22.65;17.60;;;22.70;99.90;;;;;;4993823;28;20023;-73
2023/06/17 03:14:35;;;;;;;21.08;17.48;;;22.70;99.90;;;;;;5009770;28;20392;-73
2023/06/17 03:17:03;;;;;;;19.50;17.52;;;22.70;99.90;;;;;;5009155;28;20034;-73
2023/06/17 03:19:29;;;;;;;20.70;18.52;;;22.70;99.90;;;;;;5009613;28;20034;-73
2023/06/17 03:21:55;;;;;;;19.98;17.60;;;22.60;99.90;;;;;;4994455;28;20031;-73
2023/06/17 03:24:22;;;;;;;20.35;18.25;;;22.60;99.90;;;;;;4993297;28;20495;-73
2023/06/17 03:26:48;;;;;;;21.48;18.98;;;22.60;99.90;;;;;;5009418;28;20030;-73
2023/06/17 03:29:15;;;;;;;26.23;23.05;;;22.50;99.90;;;;;;4994392;28;20388;-73
2023/06/17 03:31:41;;;;;;;21.25;19.05;;;22.50;99.90;;;;;;4992649;28;20038;-74
2023/06/17 03:34:07;;;;;;;20.70;18.58;;;22.50;99.90;;;;;;4994463;28;20042;-73
2023/06/17 03:36:33;;;;;;;21.98;19.20;;;22.50;99.90;;;;;;4990126;28;20039;-74
2023/06/17 03:38:59;;;;;;;23.10;18.73;;;22.50;99.90;;;;;;4974991;28;20031;-73
2023/06/17 03:41:26;;;;;;;21.40;19.20;;;22.40;99.90;;;;;;4984961;28;20026;-73
2023/06/17 03:43:52;;;;;;;20.80;18.77;;;22.40;99.90;;;;;;5008992;28;20034;-73
2023/06/17 03:46:18;;;;;;;20.67;18.50;;;22.40;99.90;;;;;;4992629;28;20054;-73
2023/06/17 03:48:44;;;;;;;24.85;19.45;;;22.40;99.90;;;;;;5004449;28;20057;-73
2023/06/17 03:51:11;;;;;;;22.80;20.15;;;22.40;99.90;;;;;;4992786;28;20026;-73
2023/06/17 03:53:37;;;;;;;21.55;19.33;;;22.40;99.90;;;;;;5009352;28;20049;-73
2023/06/17 03:56:03;;;;;;;22.05;19.70;;;22.30;99.90;;;;;;5009068;28;20498;-73
2023/06/17 03:58:30;;;;;;;23.23;20.77;;;22.30;99.90;;;;;;4993783;28;20034;-73
2023/06/17 04:00:56;;;;;;;23.65;19.85;;;22.20;99.90;;;;;;4993357;28;20035;-73
2023/06/17 04:03:24;;;;;;;22.45;18.88;;;22.20;99.90;;;;;;5009125;28;20026;-73
2023/06/17 04:05:54;;;;;;;22.00;19.90;;;22.20;99.90;;;;;;5007784;28;20042;-73
2023/06/17 04:08:22;;;;;;;22.13;19.80;;;22.20;99.90;;;;;;4993904;28;20034;-73
2023/06/17 04:10:49;;;;;;;23.58;20.48;;;22.10;99.90;;;;;;4993510;28;20045;-73
2023/06/17 04:13:15;;;;;;;23.38;20.45;;;22.10;99.90;;;;;;4993398;28;20022;-73
2023/06/17 04:15:42;;;;;;;23.60;19.85;;;22.20;99.90;;;;;;4993166;28;20049;-73
2023/06/17 04:18:08;;;;;;;22.33;19.92;;;22.20;99.90;;;;;;5008969;28;20035;-73
2023/06/17 04:20:34;;;;;;;22.58;19.23;;;22.10;99.90;;;;;;4993375;28;20041;-73
2023/06/17 04:23:00;;;;;;;22.52;20.10;;;22.10;99.90;;;;;;4993688;28;20026;-74
2023/06/17 04:25:27;;;;;;;26.08;20.30;;;22.10;99.90;;;;;;5008392;28;20038;-74
2023/06/17 04:27:56;;;;;;;23.30;21.00;;;22.00;99.90;;;;;;4993399;28;20028;-73
2023/06/17 04:30:25;;;;;;;22.33;20.00;;;21.90;99.90;;;;;;4992900;28;20041;-74
2023/06/17 04:32:54;;;;;;;24.55;19.85;;;21.90;99.90;;;;;;4993483;28;20022;-74
2023/06/17 04:35:21;;;;;;;23.38;20.60;;;22.00;99.90;;;;;;5007912;28;20022;-74
2023/06/17 04:37:53;;;;;;;26.05;20.08;;;21.90;99.90;;;;;;5008289;28;20417;-73
2023/06/17 04:40:23;;;;;;;24.90;21.17;;;22.00;99.90;;;;;;4992917;28;20079;-73
2023/06/17 04:42:49;;;;;;;23.67;20.75;;;22.00;99.90;;;;;;4993250;28;20026;-73
2023/06/17 04:45:17;;;;;;;23.52;21.02;;;22.00;99.90;;;;;;5007620;28;20038;-74
2023/06/17 04:47:46;;;;;;;22.27;19.90;;;21.90;99.90;;;;;;4993051;28;20046;-73
2023/06/17 04:50:15;;;;;;;22.65;20.38;;;21.90;99.90;;;;;;4991833;28;20046;-74
2023/06/17 04:52:44;;;;;;;25.55;19.73;;;22.00;99.90;;;;;;4993416;28;20411;-73
2023/06/17 04:55:13;;;;;;;;;;;22.00;99.90;;;;;;4993273;28;20173;-74
2023/06/17 04:57:41;;;;;;;29.23;21.52;;;22.00;99.90;;;;;;4993228;28;19932;-74
2023/06/17 05:00:10;;;;;;;22.15;19.85;;;22.00;99.90;;;;;;4992532;28;20030;-73
2023/06/17 05:02:37;;;;;;;22.77;20.20;;;21.90;99.90;;;;;;5008012;28;20037;-74
2023/06/17 05:05:05;;;;;;;25.83;20.80;;;21.90;99.90;;;;;;5008129;28;20399;-74
2023/06/17 05:07:31;;;;;;;26.33;20.92;;;21.90;99.90;;;;;;4992779;28;20025;-74
2023/06/17 05:09:57;;;;;;;24.45;19.55;;;22.00;99.90;;;;;;5007722;28;20042;-74
2023/06/17 05:12:23;;;;;;;22.08;19.75;;;22.00;99.90;;;;;;4992730;28;20026;-74
2023/06/17 05:14:49;;;;;;;23.23;19.45;;;22.10;99.90;;;;;;5007959;28;20061;-74
2023/06/17 05:17:15;;;;;;;22.80;18.83;;;22.10;99.90;;;;;;4992206;28;20030;-74
2023/06/17 05:19:41;;;;;;;26.58;20.13;;;22.20;99.90;;;;;;4991918;28;20038;-74
2023/06/17 05:22:07;;;;;;;20.33;18.40;;;22.30;99.90;;;;;;4992631;28;20053;-74
2023/06/17 05:24:34;;;;;;;22.45;18.17;;;22.30;99.90;;;;;;4992373;28;20042;-74
2023/06/17 05:27:00;;;;;;;20.80;18.42;;;22.30;99.90;;;;;;4992471;28;20356;-74
2023/06/17 05:29:26;;;;;;;20.00;17.90;;;22.40;99.90;;;;;;4991374;28;20053;-73
2023/06/17 05:31:52;;;;;;;23.58;18.88;;;22.40;99.90;;;;;;5007162;28;20476;-73
2023/06/17 05:34:18;;;;;;;20.27;18.13;;;22.50;99.90;;;;;;4992774;28;20043;-74
2023/06/17 05:36:45;;;;;;;20.20;17.92;;;22.50;99.90;;;;;;4996245;28;20464;-74
2023/06/17 05:39:11;;;;;;;26.33;18.48;;;22.60;99.90;;;;;;5011432;28;20030;-73
2023/06/17 05:41:37;;;;;;;21.67;18.67;;;22.60;99.90;;;;;;4996485;28;20373;-74
2023/06/17 05:44:03;;;;;;;20.45;17.70;;;22.50;99.90;;;;;;4996500;28;20053;-74
2023/06/17 05:46:29;;;;;;;21.13;18.33;;;22.60;99.90;;;;;;4995860;28;20050;-74
2023/06/17 05:48:55;;;;;;;19.90;17.98;;;22.60;99.90;;;;;;5011317;28;20411;-74
2023/06/17 05:51:21;;;;;;;21.90;19.40;;;22.60;99.90;;;;;;4996134;28;20038;-73
2023/06/17 05:53:47;;;;;;;20.67;18.52;;;22.70;99.90;;;;;;4996089;28;20034;-73
2023/06/17 05:56:13;;;;;;;21.88;17.88;;;22.70;99.90;;;;;;4996084;28;20030;-74
2023/06/17 05:58:39;;;;;;;20.98;18.23;;;22.70;99.90;;;;;;5011426;28;20023;-74
2023/06/17 06:01:06;;;;;;;19.63;17.67;;;22.70;99.90;;;;;;4995617;28;20049;-74
2023/06/17 06:03:32;;;;;;;19.90;18.00;;;22.80;99.90;;;;;;4996312;28;20026;-74
2023/06/17 06:05:58;;;;;;;21.55;18.73;;;22.90;99.90;;;;;;5011022;28;20043;-74
2023/06/17 06:08:24;;;;;;;20.17;17.70;;;22.90;99.90;;;;;;4995894;28;20268;-74
2023/06/17 06:10:50;;;;;;;18.80;16.95;;;22.90;99.90;;;;;;5010924;28;20049;-74
2023/06/17 06:13:16;;;;;;;19.25;17.13;;;22.90;99.90;;;;;;4995931;28;20030;-74
2023/06/17 06:15:42;;;;;;;21.08;17.58;;;23.00;99.90;;;;;;4995513;28;20045;-74
2023/06/17 06:18:08;;;;;;;21.23;18.95;;;23.00;99.90;;;;;;5011036;28;20041;-73
2023/06/17 06:20:34;;;;;;;23.98;18.33;;;23.00;99.90;;;;;;5010690;28;20375;-73
2023/06/17 06:23:01;;;;;;;20.27;18.20;;;23.00;99.90;;;;;;4995652;28;20026;-74
2023/06/17 06:25:27;;;;;;;18.58;16.75;;;23.10;99.90;;;;;;4995368;28;20042;-74
2023/06/17 06:27:53;;;;;;;19.75;17.70;;;23.10;99.90;;;;;;4994696;28;20038;-73
2023/06/17 06:30:19;;;;;;;19.95;17.45;;;23.20;99.90;;;;;;5010145;28;20041;-73
2023/06/17 06:32:45;;;;;;;19.48;17.55;;;23.20;99.90;;;;;;4995686;28;20036;-74
2023/06/17 06:35:11;;;;;;;21.45;16.98;;;23.20;99.90;;;;;;4995436;28;20026;-73
2023/06/17 06:37:37;;;;;;;18.90;17.10;;;23.30;99.90;;;;;;4995380;28;20045;-73
2023/06/17 06:40:05;;;;;;;22.98;20.05;;;23.20;99.90;;;;;;4995553;28;20031;-73
2023/06/17 06:42:31;;;;;;;19.40;16.58;;;23.20;99.90;;;;;;4995343;28;20033;-73
2023/06/17 06:44:57;;;;;;;19.20;17.20;;;23.20;99.90;;;;;;4995528;28;20042;-73
2023/06/17 06:47:23;;;;;;;20.20;18.10;;;23.30;99.90;;;;;;4988835;28;20030;-73
2023/06/17 06:49:49;;;;;;;22.17;19.75;;;23.40;99.90;;;;;;4974726;28;20050;-73
2023/06/17 06:52:15;;;;;;;21.23;18.70;;;23.40;99.90;;;;;;4992215;28;20041;-73
2023/06/17 06:54:42;;;;;;;19.95;18.02;;;23.40;99.90;;;;;;4995187;28;20463;-73
2023/06/17 06:57:08;;;;;;;20.92;18.15;;;23.40;99.90;;;;;;4993879;28;20042;-73
2023/06/17 06:59:34;;;;;;;20.10;17.98;;;23.50;99.90;;;;;;4995275;28;20498;-74
2023/06/17 07:02:00;;;;;;;21.67;17.50;;;23.60;99.90;;;;;;4994382;28;20038;-73
2023/06/17 07:04:26;;;;;;;20.75;18.55;;;23.60;99.90;;;;;;4995023;28;20054;-73
2023/06/17 07:06:52;;;;;;;19.00;17.00;;;23.70;99.90;;;;;;4994389;28;20030;-73
2023/06/17 07:09:18;;;;;;;20.13;17.05;;;23.80;99.90;;;;;;4995085;28;20479;-73
2023/06/17 07:11:44;;;;;;;18.90;16.92;;;23.80;99.90;;;;;;4995064;28;20038;-73
2023/06/17 07:14:11;;;;;;;18.20;15.95;;;24.00;99.90;;;;;;4994987;28;20387;-73
2023/06/17 07:16:37;;;;;;;18.25;16.38;;;24.10;99.90;;;;;;4994309;28;20050;-73
2023/06/17 07:19:03;;;;;;;18.90;16.88;;;24.20;99.90;;;;;;4993708;28;20038;-73
2023/06/17 07:21:30;;;;;;;18.73;15.40;;;24.30;99.90;;;;;;4994150;28;20038;-73
2023/06/17 07:23:56;;;;;;;17.23;15.63;;;24.40;99.90;;;;;;4994883;28;20026;-74
2023/06/17 07:26:22;;;;;;;16.10;14.40;;;24.50;99.90;;;;;;5009113;28;20487;-73
2023/06/17 07:28:48;;;;;;;18.27;16.27;;;24.60;99.90;;;;;;4993365;28;20050;-73
2023/06/17 07:31:14;;;;;;;16.83;15.23;;;24.70;99.90;;;;;;4993833;28;20381;-73
2023/06/17 07:33:40;;;;;;;17.08;15.35;;;24.90;99.90;;;;;;4994622;28;20487;-73
2023/06/17 07:36:06;;;;;;;21.33;15.80;;;25.00;99.90;;;;;;5008894;28;20427;-74
2023/06/17 07:38:33;;;;;;;17.10;15.23;;;25.20;99.90;;;;;;5009643;28;20498;-73
2023/06/17 07:41:00;;;;;;;18.48;14.35;;;25.30;99.90;;;;;;4994327;28;20484;-73
2023/06/17 07:43:26;;;;;;;15.93;13.88;;;25.30;99.90;;;;;;4994906;28;20046;-73
2023/06/17 07:45:52;;;;;;;14.50;13.07;;;25.50;99.90;;;;;;4993639;28;20058;-73
2023/06/17 07:48:18;;;;;;;14.82;13.32;;;25.60;99.90;;;;;;4994227;28;20391;-74
2023/06/17 07:50:44;;;;;;;15.90;13.10;;;25.60;99.90;;;;;;4993507;28;20042;-73
2023/06/17 07:53:10;;;;;;;16.00;12.68;;;25.70;99.90;;;;;;4994216;28;20384;-73
2023/06/17 07:55:37;;;;;;;15.60;13.43;;;25.70;99.90;;;;;;4994017;28;20030;-73
2023/06/17 07:58:03;;;;;;;15.32;13.30;;;25.80;99.90;;;;;;4993852;28;20502;-73
2023/06/17 08:00:29;;;;;;;16.35;14.60;;;25.50;99.90;;;;;;4993339;28;20034;-73
2023/06/17 08:02:55;;;;;;;15.93;14.32;;;25.30;99.90;;;;;;4994140;28;20034;-73
2023/06/17 08:05:21;;;;;;;16.55;12.88;;;25.30;99.90;;;;;;4993315;28;20391;-73
2023/06/17 08:07:48;;;;;;;15.30;13.68;;;25.60;99.90;;;;;;4993053;28;20045;-73
2023/06/17 08:10:14;;;;;;;13.07;11.85;;;25.80;99.90;;;;;;5008727;28;20030;-74
2023/06/17 08:12:41;;;;;;;14.60;13.10;;;25.90;99.90;;;;;;5009064;28;20041;-73
2023/06/17 08:15:08;;;;;;;13.65;12.30;;;26.20;99.90;;;;;;4993329;28;20027;-73
2023/06/17 08:17:34;;;;;;;18.13;12.25;;;26.50;99.90;;;;;;4993632;28;20030;-73
2023/06/17 08:20:00;;;;;;;14.77;12.30;;;26.80;99.90;;;;;;5008497;28;20031;-73
2023/06/17 08:22:26;;;;;;;14.80;12.25;;;26.80;99.90;;;;;;4993553;28;20030;-73
2023/06/17 08:24:52;;;;;;;14.70;11.20;;;27.00;99.90;;;;;;4993650;28;20038;-73
2023/06/17 08:27:18;;;;;;;14.65;12.55;;;27.10;99.90;;;;;;5008503;28;20372;-73
2023/06/17 08:29:44;;;;;;;12.60;11.40;;;27.10;99.90;;;;;;4993323;28;20061;-73
2023/06/17 08:32:10;;;;;;;13.70;12.38;;;26.90;99.90;;;;;;4993061;28;20035;-73
2023/06/17 08:34:36;;;;;;;13.15;11.68;;;27.00;99.90;;;;;;4993150;28;20034;-73
2023/06/17 08:37:04;;;;;;;13.45;12.02;;;27.30;99.90;;;;;;4993183;28;20464;-73
2023/06/17 08:39:31;;;;;;;11.77;10.60;;;27.40;99.90;;;;;;4993187;28;20399;-73
2023/06/17 08:41:57;;;;;;;13.07;11.95;;;27.50;99.90;;;;;;4993232;28;20033;-73
2023/06/17 08:44:25;;;;;;;13.93;12.63;;;27.70;99.90;;;;;;5008717;28;20034;-73
2023/06/17 08:46:53;;;;;;;15.38;13.77;;;27.80;99.90;;;;;;5005799;28;20034;-73
2023/06/17 08:49:21;;;;;;;16.95;15.43;;;27.90;99.90;;;;;;5007717;28;20046;-73
2023/06/17 08:51:50;;;;;;;16.38;14.73;;;28.10;99.90;;;;;;5007955;28;20022;-72
2023/06/17 08:54:16;;;;;;;17.80;15.93;;;27.70;99.90;;;;;;5008262;28;20090;-73
2023/06/17 08:56:42;;;;;;;17.17;15.35;;;27.80;99.90;;;;;;5007855;28;20387;-73
2023/06/17 08:59:08;;;;;;;16.83;15.43;;;27.90;99.90;;;;;;5008000;28;20045;-74
2023/06/17 09:01:34;;;;;;;19.05;17.45;;;28.10;99.90;;;;;;4992245;28;20399;-73
2023/06/17 09:04:00;;;;;;;19.67;18.08;;;28.10;99.90;;;;;;5008096;28;20030;-74
2023/06/17 09:06:28;;;;;;;19.38;17.98;;;28.10;99.90;;;;;;5007876;28;20038;-73
2023/06/17 09:08:57;;;;;;;21.15;19.50;;;28.30;99.90;;;;;;5007754;28;20398;-74
2023/06/17 09:11:24;;;;;;;22.42;20.58;;;28.60;99.90;;;;;;4992815;28;20388;-73
2023/06/17 09:13:51;;;;;;;18.40;16.95;;;28.90;99.90;;;;;;4992975;28;20022;-73
2023/06/17 09:16:18;;;;;;;19.23;17.83;;;29.00;99.90;;;;;;5006820;28;20053;-73
2023/06/17 09:18:44;;;;;;;18.27;16.98;;;29.20;99.90;;;;;;4992885;28;20053;-73
2023/06/17 09:21:14;;;;;;;22.95;21.40;;;29.40;99.90;;;;;;4992464;28;20042;-73
2023/06/17 09:23:40;;;;;;;19.58;18.05;;;29.50;99.90;;;;;;5007984;28;20033;-73
2023/06/17 09:26:06;;;;;;;16.77;15.48;;;29.70;99.90;;;;;;5007441;28;20051;-73
2023/06/17 09:28:32;;;;;;;20.10;18.77;;;29.80;99.90;;;;;;4992706;28;20026;-74
2023/06/17 09:31:03;;;;;;;18.85;17.05;;;30.00;99.90;;;;;;4991846;28;20049;-73
2023/06/17 09:33:29;;;;;;;16.75;15.60;;;30.00;99.90;;;;;;5007308;28;20027;-73
2023/06/17 09:36:04;;;;;;;17.83;16.40;;;30.10;99.90;;;;;;4991005;28;20034;-73
2023/06/17 09:38:33;;;;;;;16.83;15.45;;;29.90;99.90;;;;;;5007554;28;20025;-73
2023/06/17 09:40:59;;;;;;;17.15;15.75;;;30.10;99.90;;;;;;5007075;28;20046;-73
2023/06/17 09:43:26;;;;;;;17.88;16.33;;;30.20;99.90;;;;;;5007684;28;20034;-74
2023/06/17 09:46:00;;;;;;;17.65;16.42;;;30.30;99.90;;;;;;5006615;28;20042;-73
2023/06/17 09:48:34;;;;;;;16.85;15.55;;;30.00;99.90;;;;;;4992491;28;20046;-73
2023/06/17 09:51:00;;;;;;;15.18;14.13;;;30.10;99.90;;;;;;4991185;28;20035;-73
2023/06/17 09:53:28;;;;;;;17.60;16.30;;;30.20;99.90;;;;;;4992528;28;20031;-73
2023/06/17 09:55:57;;;;;;;18.20;16.90;;;30.10;99.50;;;;;;5007197;28;20053;-73
2023/06/17 09:58:30;;;;;;;18.92;17.60;;;30.30;99.90;;;;;;5007289;28;20037;-73
2023/06/17 10:00:57;;;;;;;17.38;15.98;;;30.50;99.90;;;;;;4991560;28;20035;-73
2023/06/17 10:03:24;;;;;;;17.02;15.73;;;30.70;99.70;;;;;;5007577;28;20026;-73
2023/06/17 10:06:19;;;;;;;17.65;16.33;;;30.80;99.10;;;;;;4990445;28;20537;-73
2023/06/17 10:08:48;;;;;;;16.30;15.30;;;30.80;99.10;;;;;;5005075;28;20031;-73
2023/06/17 10:11:17;;;;;;;18.05;16.75;;;30.80;98.80;;;;;;5007002;28;20035;-73
2023/06/17 10:13:44;;;;;;;16.75;15.38;;;30.90;98.60;;;;;;4990589;28;20491;-70
2023/06/17 10:16:12;;;;;;;15.50;14.35;;;30.90;97.50;;;;;;5006542;28;20388;-74
2023/06/17 10:18:39;;;;;;;14.80;13.60;;;30.90;97.90;;;;;;5007230;28;20473;-74
2023/06/17 10:21:06;;;;;;;16.80;15.45;;;30.90;97.60;;;;;;5007548;28;20051;-74
2023/06/17 10:23:32;;;;;;;15.18;14.18;;;31.00;96.70;;;;;;5011023;28;20018;-74
2023/06/17 10:25:58;;;;;;;16.77;15.35;;;31.10;97.40;;;;;;5010666;28;20050;-74
2023/06/17 10:28:24;;;;;;;15.85;14.65;;;31.20;97.70;;;;;;4995494;28;20033;-74
2023/06/17 10:30:51;;;;;;;17.77;16.40;;;31.20;97.50;;;;;;4995058;28;20431;-74
2023/06/17 10:33:25;;;;;;;16.00;14.85;;;31.40;97.80;;;;;;5010634;28;20379;-74
2023/06/17 10:35:51;;;;;;;16.55;15.35;;;31.40;97.40;;;;;;5009663;28;20053;-74
2023/06/17 10:38:28;;;;;;;16.25;14.90;;;31.30;96.90;;;;;;5010606;28;20041;-72
2023/06/17 10:40:54;;;;;;;18.58;17.40;;;31.30;97.20;;;;;;5010351;28;20034;-74
2023/06/17 10:43:20;;;;;;;17.80;16.48;;;31.20;97.20;;;;;;4995278;28;20045;-74
2023/06/17 10:45:48;;;;;;;16.80;15.70;;;31.20;97.10;;;;;;5009717;28;20042;-74
2023/06/17 10:48:20;;;;;;;17.13;15.85;;;31.20;97.40;;;;;;4995283;28;20045;-75
2023/06/17 10:50:57;;;;;;;21.63;19.88;;;31.30;97.80;;;;;;4994801;28;20057;-74
2023/06/17 10:53:35;;;;;;;15.57;14.48;;;31.40;97.60;;;;;;4995384;28;20038;-74
2023/06/17 10:56:03;;;;;;;15.60;14.40;;;31.60;96.00;;;;;;5009943;28;20498;-74
2023/06/17 10:58:30;;;;;;;15.93;14.80;;;31.70;96.20;;;;;;5009973;28;20380;-74
2023/06/17 11:00:58;;;;;;;14.85;13.85;;;31.70;96.10;;;;;;5009529;28;20046;-74
2023/06/17 11:03:24;;;;;;;10.77;10.07;;;31.70;95.70;;;;;;5010219;28;20022;-74
2023/06/17 11:05:52;;;;;;;13.82;12.85;;;31.50;91.30;;;;;;5009541;28;20069;-74
2023/06/17 11:08:18;;;;;;;13.27;12.27;;;31.20;93.10;;;;;;5009998;28;20046;-74
2023/06/17 11:10:44;;;;;;;14.77;13.70;;;31.20;94.00;;;;;;4994751;28;20415;-74
2023/06/17 11:13:12;;;;;;;14.02;12.95;;;31.30;95.00;;;;;;4994762;28;20033;-74
2023/06/17 11:15:38;;;;;;;11.90;10.90;;;31.40;94.70;;;;;;4994260;28;20419;-74
2023/06/17 11:18:05;;;;;;;11.38;10.48;;;31.50;93.30;;;;;;4994977;28;20037;-74
2023/06/17 11:20:37;;;;;;;11.65;10.95;;;31.10;90.60;;;;;;4992960;28;20034;-74
2023/06/17 11:23:04;;;;;;;11.23;10.40;;;31.00;92.40;;;;;;5009524;28;20057;-74
2023/06/17 11:25:31;;;;;;;11.25;10.45;;;31.20;92.60;;;;;;5009502;28;20443;-75
2023/06/17 11:27:57;;;;;;;11.82;11.02;;;31.30;92.60;;;;;;5009472;28;20090;-74
2023/06/17 11:30:25;;;;;;;11.80;10.90;;;31.40;90.20;;;;;;5009134;28;20047;-75
2023/06/17 11:32:51;;;;;;;11.27;10.57;;;31.20;92.00;;;;;;5008795;28;20030;-75
2023/06/17 11:35:17;;;;;;;11.27;10.38;;;31.30;91.60;;;;;;5009592;28;20026;-74
2023/06/17 11:37:43;;;;;;;11.93;10.98;;;31.30;90.50;;;;;;4994505;28;20034;-74
2023/06/17 11:40:11;;;;;;;12.68;11.73;;;31.30;90.50;;;;;;5007385;28;20486;-74
2023/06/17 11:42:38;;;;;;;10.82;10.23;;;31.40;89.60;;;;;;5008141;28;20229;-74
2023/06/17 11:45:05;;;;;;;11.82;10.93;;;31.50;90.50;;;;;;4994285;28;20042;-74
2023/06/17 11:47:32;;;;;;;14.68;13.77;;;31.60;90.80;;;;;;5008958;28;20463;-75
2023/06/17 11:49:58;;;;;;;11.75;10.85;;;31.80;89.00;;;;;;4993073;28;20054;-75
2023/06/17 11:52:24;;;;;;;11.65;10.75;;;31.50;87.80;;;;;;4992978;28;20030;-75
2023/06/17 11:54:51;;;;;;;10.70;9.73;;;31.60;89.00;;;;;;4994374;28;20018;-74
2023/06/17 11:57:22;;;;;;;9.93;9.32;;;31.70;89.40;;;;;;5008777;28;20030;-74
2023/06/17 11:59:48;;;;;;;12.02;11.10;;;31.80;89.50;;;;;;5009245;28;20022;-71
2023/06/17 12:02:15;;;;;;;11.93;11.02;;;32.00;88.80;;;;;;5008254;28;20065;-73
2023/06/17 12:04:45;;;;;;;9.68;8.98;;;32.00;87.40;;;;;;4994170;28;20030;-76
2023/06/17 12:07:11;;;;;;;12.10;11.35;;;32.10;89.10;;;;;;5008672;28;20038;-75
2023/06/17 12:09:38;;;;;;;12.35;11.65;;;32.20;88.00;;;;;;4993848;28;20499;-72
2023/06/17 12:12:04;;;;;;;11.45;10.68;;;32.20;82.00;;;;;;4993196;28;20034;-73
2023/06/17 12:14:30;;;;;;;12.18;11.23;;;32.00;84.60;;;;;;4992861;28;20034;-72
2023/06/17 12:16:57;;;;;;;12.05;11.32;;;32.00;85.30;;;;;;4993152;28;20049;-73
2023/06/17 12:19:23;;;;;;;11.48;10.68;;;32.00;83.90;;;;;;4993634;28;20034;-73
2023/06/17 12:21:50;;;;;;;11.43;10.82;;;32.10;81.80;;;;;;5008515;28;20387;-72
2023/06/17 12:24:17;;;;;;;13.10;12.32;;;32.20;85.40;;;;;;5008552;28;20041;-72
2023/06/17 12:26:44;;;;;;;12.68;11.88;;;32.50;85.00;;;;;;5008206;28;20045;-73